Time;durP1;ratioP1;P1;durP2;ratioP2;P2;SDS_P1;SDS_P2;PMS_P1;PMS_P2;Temp;Humidity;BMP_temperature;BMP_pressure;BME280_temperature;BME280_humidity;BME280_pressure;Samples;Min_cycle;Max_cycle;Signal;HPM_P1;HPM_P2
2023/12/17 00:01:08;;;;;;;41.45;23.63;;;9.00;99.90;;;;;;5028886;28;20156;-52
2023/12/17 00:03:34;;;;;;;41.20;24.08;;;9.00;99.90;;;;;;5028587;28;20410;-53
2023/12/17 00:06:02;;;;;;;40.83;26.15;;;9.00;99.90;;;;;;5028791;28;20036;-50
2023/12/17 00:08:27;;;;;;;40.83;24.45;;;9.00;99.90;;;;;;5027652;28;20017;-53
2023/12/17 00:10:53;;;;;;;45.20;25.27;;;9.00;99.90;;;;;;5029184;28;20066;-51
2023/12/17 00:13:19;;;;;;;44.08;25.77;;;9.00;99.90;;;;;;5028442;28;20026;-50
2023/12/17 00:15:45;;;;;;;42.58;24.40;;;9.00;99.90;;;;;;5028353;28;20130;-50
2023/12/17 00:18:12;;;;;;;40.25;24.75;;;9.00;99.90;;;;;;5010664;28;20037;-51
2023/12/17 00:20:38;;;;;;;39.22;24.27;;;9.00;99.90;;;;;;5028765;28;20029;-50
2023/12/17 00:23:04;;;;;;;43.25;25.17;;;9.00;99.90;;;;;;5028763;28;20048;-53
2023/12/17 00:25:33;;;;;;;37.42;23.60;;;9.00;99.90;;;;;;5026373;28;20034;-52
2023/12/17 00:27:58;;;;;;;44.42;24.00;;;9.00;99.90;;;;;;5027973;28;20025;-53
2023/12/17 00:30:24;;;;;;;37.55;23.13;;;9.00;99.90;;;;;;5026901;28;20442;-51
2023/12/17 00:32:49;;;;;;;40.75;23.35;;;9.00;99.90;;;;;;5027987;28;20025;-53
2023/12/17 00:35:15;;;;;;;37.80;24.25;;;9.00;99.90;;;;;;5025980;28;20906;-52
2023/12/17 00:37:41;;;;;;;38.08;24.10;;;9.00;99.90;;;;;;5009953;28;20022;-52
2023/12/17 00:40:07;;;;;;;39.85;22.27;;;9.00;99.90;;;;;;5026655;28;20079;-51
2023/12/17 00:42:33;;;;;;;34.65;21.88;;;9.00;99.90;;;;;;5028125;28;20450;-52
2023/12/17 00:44:59;;;;;;;40.17;22.77;;;9.00;99.90;;;;;;5027639;28;20033;-53
2023/12/17 00:47:24;;;;;;;37.30;21.77;;;9.10;99.90;;;;;;5027433;28;20478;-53
2023/12/17 00:49:52;;;;;;;32.67;21.48;;;9.10;99.90;;;;;;5027948;28;20270;-53
2023/12/17 00:52:17;;;;;;;38.30;22.90;;;9.00;99.90;;;;;;5027868;28;20113;-53
2023/12/17 00:54:43;;;;;;;35.53;22.88;;;9.10;99.90;;;;;;5028015;28;20180;-54
2023/12/17 00:57:08;;;;;;;35.67;22.33;;;9.10;99.90;;;;;;5027619;28;20022;-52
2023/12/17 00:59:34;;;;;;;33.90;22.70;;;9.10;99.90;;;;;;5028142;28;20052;-53
2023/12/17 01:02:00;;;;;;;38.65;21.85;;;9.10;99.90;;;;;;5027239;28;20057;-52
2023/12/17 01:04:25;;;;;;;36.90;21.80;;;9.10;99.90;;;;;;5027595;28;20017;-53
2023/12/17 01:06:51;;;;;;;35.78;20.33;;;9.00;99.90;;;;;;5027350;28;20022;-54
2023/12/17 01:09:17;;;;;;;32.65;20.27;;;9.10;99.90;;;;;;5027417;28;20036;-53
2023/12/17 01:11:43;;;;;;;34.33;22.23;;;9.10;99.90;;;;;;5027823;28;20018;-54
2023/12/17 01:14:09;;;;;;;38.15;21.80;;;9.10;99.90;;;;;;5027757;28;20103;-53
2023/12/17 01:16:35;;;;;;;33.13;21.35;;;9.10;99.90;;;;;;5027624;28;20021;-52
2023/12/17 01:19:00;;;;;;;31.20;20.95;;;9.10;99.90;;;;;;5027639;28;20029;-53
2023/12/17 01:21:26;;;;;;;36.00;21.98;;;9.10;99.90;;;;;;5026915;28;20034;-53
2023/12/17 01:23:52;;;;;;;31.95;20.35;;;9.10;99.90;;;;;;5027117;28;20039;-53
2023/12/17 01:26:23;;;;;;;36.45;21.02;;;9.10;99.90;;;;;;5025722;28;20056;-53
2023/12/17 01:28:49;;;;;;;32.38;21.00;;;9.10;99.90;;;;;;5026312;28;20041;-53
2023/12/17 01:31:15;;;;;;;36.67;21.30;;;9.10;99.90;;;;;;5026859;28;20672;-52
2023/12/17 01:33:41;;;;;;;30.40;20.17;;;9.10;99.90;;;;;;5027416;28;20025;-53
2023/12/17 01:36:07;;;;;;;34.00;21.52;;;9.10;99.90;;;;;;5008798;28;20032;-51
2023/12/17 01:38:33;;;;;;;32.92;20.05;;;9.10;99.90;;;;;;5026840;28;20499;-53
2023/12/17 01:40:58;;;;;;;34.78;21.35;;;9.10;99.90;;;;;;5035789;28;20021;-52
2023/12/17 01:43:24;;;;;;;31.90;20.63;;;9.10;99.90;;;;;;5038827;28;20070;-52
2023/12/17 01:45:52;;;;;;;32.08;20.40;;;9.10;99.90;;;;;;5036614;28;20249;-52
2023/12/17 01:48:18;;;;;;;31.90;20.60;;;9.20;99.90;;;;;;5031420;28;20089;-49
2023/12/17 01:50:44;;;;;;;33.17;20.92;;;9.10;99.90;;;;;;5027049;28;20025;-52
2023/12/17 01:53:10;;;;;;;31.35;20.92;;;9.10;99.90;;;;;;5027378;28;20052;-51
2023/12/17 01:55:36;;;;;;;28.58;19.75;;;9.10;99.90;;;;;;5026814;28;20526;-53
2023/12/17 01:58:02;;;;;;;33.47;19.80;;;9.10;99.90;;;;;;5002786;28;20257;-53
2023/12/17 02:00:29;;;;;;;30.10;18.92;;;9.10;99.90;;;;;;5026675;28;20043;-53
2023/12/17 02:02:54;;;;;;;30.42;19.17;;;9.10;99.90;;;;;;5027476;28;20053;-53
2023/12/17 02:05:20;;;;;;;35.65;21.20;;;9.10;99.90;;;;;;5038045;28;20150;-53
2023/12/17 02:07:46;;;;;;;33.63;20.33;;;9.10;99.90;;;;;;5038131;28;20111;-53
2023/12/17 02:10:12;;;;;;;31.25;19.92;;;9.10;99.90;;;;;;5038179;28;20018;-52
2023/12/17 02:12:38;;;;;;;28.23;19.10;;;9.10;99.90;;;;;;5039806;28;20024;-53
2023/12/17 02:15:04;;;;;;;27.58;18.83;;;9.10;99.90;;;;;;5036778;28;20028;-50
2023/12/17 02:17:31;;;;;;;25.98;17.95;;;9.10;99.90;;;;;;5022640;28;20104;-54
2023/12/17 02:19:56;;;;;;;32.70;19.33;;;9.10;99.90;;;;;;5037553;28;20042;-53
2023/12/17 02:22:23;;;;;;;28.05;18.05;;;9.20;99.90;;;;;;5035342;28;20060;-52
2023/12/17 02:24:53;;;;;;;29.55;19.20;;;9.10;99.90;;;;;;5038841;28;20075;-51
2023/12/17 02:27:19;;;;;;;27.67;18.80;;;9.10;99.90;;;;;;5039263;28;20063;-51
2023/12/17 02:29:45;;;;;;;31.63;19.40;;;9.20;99.90;;;;;;5039684;28;20013;-53
2023/12/17 02:32:11;;;;;;;29.50;19.38;;;9.10;99.90;;;;;;5038463;28;20021;-53
2023/12/17 02:34:36;;;;;;;28.38;18.52;;;9.20;99.90;;;;;;5040650;28;20116;-53
2023/12/17 02:37:02;;;;;;;26.60;17.67;;;9.10;99.90;;;;;;5037220;28;20032;-52
2023/12/17 02:39:28;;;;;;;28.58;19.17;;;9.10;99.90;;;;;;5036375;28;20402;-53
2023/12/17 02:41:53;;;;;;;28.48;19.05;;;9.10;99.90;;;;;;5038539;28;20524;-53
2023/12/17 02:44:19;;;;;;;29.70;19.48;;;9.10;99.90;;;;;;5039650;28;20029;-55
2023/12/17 02:46:45;;;;;;;30.48;19.85;;;9.10;99.90;;;;;;5039555;28;20028;-51
2023/12/17 02:49:11;;;;;;;29.15;19.15;;;9.10;99.90;;;;;;5038432;28;20026;-53
2023/12/17 02:51:37;;;;;;;32.30;19.10;;;9.10;99.90;;;;;;5041040;28;20113;-50
2023/12/17 02:54:02;;;;;;;29.70;18.80;;;9.10;99.90;;;;;;5016553;28;20101;-53
2023/12/17 02:56:28;;;;;;;28.45;18.48;;;9.10;99.90;;;;;;5040547;28;20029;-50
2023/12/17 02:58:53;;;;;;;27.80;17.98;;;9.10;99.90;;;;;;5039520;28;20068;-53
2023/12/17 03:01:19;;;;;;;29.20;17.88;;;9.10;99.90;;;;;;5040206;28;20034;-51
2023/12/17 03:03:45;;;;;;;30.52;18.25;;;9.00;99.90;;;;;;5022126;28;20462;-52
2023/12/17 03:06:11;;;;;;;28.60;18.05;;;9.10;99.90;;;;;;5037288;28;20018;-53
2023/12/17 03:08:38;;;;;;;30.20;17.95;;;9.10;99.90;;;;;;5041265;28;20024;-52
2023/12/17 03:11:04;;;;;;;26.50;17.48;;;9.00;99.90;;;;;;5037874;28;20022;-52
2023/12/17 03:13:30;;;;;;;29.23;19.05;;;9.00;99.90;;;;;;5040749;28;20276;-52
2023/12/17 03:15:55;;;;;;;28.42;17.58;;;9.00;99.90;;;;;;5038337;28;20402;-50
2023/12/17 03:18:21;;;;;;;30.30;17.38;;;9.00;99.90;;;;;;5040006;28;20030;-50
2023/12/17 03:20:47;;;;;;;25.30;16.25;;;9.10;99.90;;;;;;5040057;28;20056;-51
2023/12/17 03:23:13;;;;;;;25.73;15.88;;;9.10;99.90;;;;;;5039348;28;20025;-53
2023/12/17 03:25:38;;;;;;;28.17;17.08;;;9.10;99.90;;;;;;5043473;28;20017;-51
2023/12/17 03:28:04;;;;;;;30.45;15.85;;;9.10;99.90;;;;;;5036412;28;20020;-52
2023/12/17 03:30:29;;;;;;;27.20;16.50;;;9.10;99.90;;;;;;5044947;28;20112;-52
2023/12/17 03:32:55;;;;;;;26.38;15.13;;;9.10;99.90;;;;;;5042874;28;20021;-51
2023/12/17 03:35:20;;;;;;;22.45;14.77;;;9.10;99.90;;;;;;5043586;28;20360;-53
2023/12/17 03:37:46;;;;;;;25.05;14.88;;;9.00;99.90;;;;;;5044363;28;20025;-51
2023/12/17 03:40:13;;;;;;;26.15;15.50;;;9.10;99.90;;;;;;5042914;28;20022;-52
2023/12/17 03:42:38;;;;;;;22.38;14.73;;;9.00;99.90;;;;;;5041507;28;20021;-51
2023/12/17 03:45:04;;;;;;;22.17;15.10;;;9.10;99.90;;;;;;5040598;28;20039;-51
2023/12/17 03:47:31;;;;;;;19.88;14.35;;;9.10;99.90;;;;;;5024974;28;20068;-53
2023/12/17 03:50:02;;;;;;;23.60;14.15;;;9.00;99.90;;;;;;5042527;28;20339;-50
2023/12/17 03:52:28;;;;;;;24.63;14.90;;;9.10;99.90;;;;;;5037061;28;20100;-51
2023/12/17 03:54:53;;;;;;;20.23;12.48;;;9.00;99.90;;;;;;5040858;28;20096;-51
2023/12/17 03:57:19;;;;;;;23.27;14.35;;;9.00;99.90;;;;;;5039933;28;20526;-53
2023/12/17 03:59:44;;;;;;;21.35;13.50;;;9.00;99.90;;;;;;5041876;28;20021;-50
2023/12/17 04:02:10;;;;;;;21.20;12.73;;;9.00;99.90;;;;;;5042401;28;20087;-51
2023/12/17 04:04:36;;;;;;;18.77;12.02;;;9.00;99.90;;;;;;5044957;28;20039;-53
2023/12/17 04:07:01;;;;;;;24.13;14.23;;;9.00;99.90;;;;;;5042102;28;20492;-51
2023/12/17 04:09:27;;;;;;;22.27;13.40;;;9.00;99.90;;;;;;5027062;28;20032;-52
2023/12/17 04:11:52;;;;;;;22.85;13.43;;;9.10;99.90;;;;;;5043670;28;20021;-53
2023/12/17 04:14:18;;;;;;;22.67;12.75;;;9.00;99.90;;;;;;5043415;28;20392;-53
2023/12/17 04:16:43;;;;;;;20.25;12.63;;;9.00;99.90;;;;;;5045027;28;20078;-54
2023/12/17 04:19:09;;;;;;;20.67;13.95;;;9.00;99.90;;;;;;5042065;28;20025;-53
2023/12/17 04:21:36;;;;;;;20.48;13.10;;;9.00;99.90;;;;;;5045039;28;20107;-53
2023/12/17 04:24:02;;;;;;;18.02;12.27;;;9.00;99.90;;;;;;5042803;28;20456;-54
2023/12/17 04:26:28;;;;;;;18.15;12.07;;;9.00;99.90;;;;;;5033252;28;20025;-53
2023/12/17 04:28:53;;;;;;;19.08;11.35;;;9.00;99.90;;;;;;5043898;28;20150;-53
2023/12/17 04:31:19;;;;;;;18.42;12.50;;;9.00;99.90;;;;;;5043894;28;20025;-53
2023/12/17 04:33:44;;;;;;;17.48;11.50;;;9.00;99.90;;;;;;5044967;28;20478;-53
2023/12/17 04:36:10;;;;;;;18.27;12.32;;;9.00;99.90;;;;;;5042101;28;20080;-54
2023/12/17 04:38:36;;;;;;;18.35;11.60;;;9.10;99.90;;;;;;5045073;28;20029;-54
2023/12/17 04:41:01;;;;;;;18.63;11.68;;;9.10;99.90;;;;;;5042777;28;20059;-53
2023/12/17 04:43:28;;;;;;;17.08;10.60;;;9.10;99.90;;;;;;5044993;28;20053;-53
2023/12/17 04:45:55;;;;;;;16.13;11.32;;;9.10;99.90;;;;;;5043349;28;20103;-51
2023/12/17 04:48:20;;;;;;;19.23;12.10;;;9.10;99.90;;;;;;5044095;28;20021;-53
2023/12/17 04:50:46;;;;;;;16.30;11.13;;;9.10;99.90;;;;;;5045386;28;20017;-53
2023/12/17 04:53:12;;;;;;;16.83;10.95;;;9.00;99.90;;;;;;5042821;28;20100;-52
2023/12/17 04:55:37;;;;;;;16.00;11.43;;;9.10;99.90;;;;;;5044523;28;20021;-53
2023/12/17 04:58:03;;;;;;;15.77;10.38;;;9.10;99.90;;;;;;5042666;28;20470;-51
2023/12/17 05:00:29;;;;;;;15.45;11.15;;;9.10;99.90;;;;;;5039379;28;20037;-54
2023/12/17 05:02:54;;;;;;;14.90;10.18;;;9.10;99.90;;;;;;5032640;28;20053;-53
2023/12/17 05:05:22;;;;;;;16.40;10.35;;;9.10;99.90;;;;;;5043596;28;20033;-53
2023/12/17 05:07:48;;;;;;;15.10;10.25;;;9.10;99.90;;;;;;5045040;28;20017;-52
2023/12/17 05:10:14;;;;;;;14.82;11.20;;;9.00;99.90;;;;;;5043218;28;20699;-53
2023/12/17 05:12:39;;;;;;;17.02;9.48;;;9.10;99.90;;;;;;5045146;28;20049;-53
2023/12/17 05:15:05;;;;;;;16.75;11.98;;;9.10;99.90;;;;;;5024386;28;20382;-53
2023/12/17 05:17:31;;;;;;;15.27;10.35;;;9.10;99.90;;;;;;5045102;28;20100;-53
2023/12/17 05:19:57;;;;;;;14.82;10.52;;;9.10;99.90;;;;;;5043794;28;20104;-53
2023/12/17 05:22:22;;;;;;;15.90;10.85;;;9.10;99.90;;;;;;5044732;28;20040;-53
2023/12/17 05:24:48;;;;;;;13.65;9.63;;;9.10;99.90;;;;;;5045201;28;20390;-53
2023/12/17 05:27:14;;;;;;;14.77;10.07;;;9.10;99.90;;;;;;5025033;28;20022;-52
2023/12/17 05:29:40;;;;;;;14.65;10.55;;;9.10;99.90;;;;;;5045288;28;20390;-51
2023/12/17 05:32:06;;;;;;;18.48;10.73;;;9.10;99.90;;;;;;5043415;28;20026;-52
2023/12/17 05:34:31;;;;;;;16.52;10.75;;;9.10;99.90;;;;;;5045381;28;20033;-53
2023/12/17 05:36:57;;;;;;;14.23;10.38;;;9.10;99.90;;;;;;5043888;28;20035;-53
2023/12/17 05:39:23;;;;;;;20.38;11.25;;;9.10;99.90;;;;;;5044335;28;20037;-50
2023/12/17 05:41:48;;;;;;;18.45;10.88;;;9.10;99.90;;;;;;5045170;28;20501;-52
2023/12/17 05:44:14;;;;;;;15.25;10.68;;;9.10;99.90;;;;;;5043200;28;20138;-51
2023/12/17 05:46:39;;;;;;;14.82;10.20;;;9.10;99.90;;;;;;5044857;28;20064;-52
2023/12/17 05:49:05;;;;;;;13.90;10.73;;;9.10;99.90;;;;;;5042829;28;20029;-50
2023/12/17 05:51:31;;;;;;;17.77;10.80;;;9.10;99.90;;;;;;5045166;28;20029;-51
2023/12/17 05:53:56;;;;;;;14.60;9.55;;;9.10;99.90;;;;;;5044443;28;20421;-52
2023/12/17 05:56:22;;;;;;;15.75;9.70;;;9.10;99.90;;;;;;5044097;28;20021;-53
2023/12/17 05:58:47;;;;;;;15.15;10.88;;;9.10;99.90;;;;;;5045112;28;20025;-53
2023/12/17 06:01:14;;;;;;;16.08;10.98;;;9.10;99.90;;;;;;5043529;28;20052;-53
2023/12/17 06:03:39;;;;;;;14.68;9.75;;;9.10;99.90;;;;;;5037960;28;20472;-53
2023/12/17 06:06:06;;;;;;;13.50;10.02;;;9.10;99.90;;;;;;5033015;28;20074;-51
2023/12/17 06:08:31;;;;;;;17.55;10.07;;;9.10;99.90;;;;;;5035058;28;20087;-52
2023/12/17 06:10:57;;;;;;;15.18;10.63;;;9.10;99.90;;;;;;5034743;28;20037;-53
2023/12/17 06:13:22;;;;;;;14.05;10.05;;;9.10;99.90;;;;;;5044213;28;20041;-53
2023/12/17 06:15:48;;;;;;;14.65;9.98;;;9.10;99.90;;;;;;5027072;28;20091;-53
2023/12/17 06:18:15;;;;;;;15.63;9.55;;;9.10;99.90;;;;;;5044220;28;20181;-53
2023/12/17 06:20:41;;;;;;;14.93;10.55;;;9.10;99.90;;;;;;5045988;28;20024;-53
2023/12/17 06:23:06;;;;;;;12.88;9.82;;;9.10;99.90;;;;;;5044102;28;20192;-53
2023/12/17 06:25:32;;;;;;;14.15;9.10;;;9.10;99.90;;;;;;5045105;28;20028;-53
2023/12/17 06:27:58;;;;;;;16.30;9.55;;;9.10;99.90;;;;;;5044623;28;20464;-53
2023/12/17 06:30:23;;;;;;;14.38;10.20;;;9.10;99.90;;;;;;5041822;28;20021;-53
2023/12/17 06:32:49;;;;;;;14.80;10.60;;;9.10;99.90;;;;;;5034433;28;20137;-52
2023/12/17 06:35:14;;;;;;;14.52;10.10;;;9.10;99.90;;;;;;5043755;28;20032;-53
2023/12/17 06:37:40;;;;;;;13.82;9.85;;;9.10;99.90;;;;;;5045842;28;20543;-52
2023/12/17 06:40:09;;;;;;;16.92;10.90;;;9.10;99.90;;;;;;5044224;28;20021;-53
2023/12/17 06:42:34;;;;;;;15.40;11.05;;;9.10;99.90;;;;;;5021325;28;20053;-53
2023/12/17 06:45:01;;;;;;;14.07;10.20;;;9.10;99.90;;;;;;5044657;28;20064;-53
2023/12/17 06:47:26;;;;;;;13.45;9.85;;;9.10;99.90;;;;;;5045159;28;20552;-53
2023/12/17 06:49:53;;;;;;;16.60;9.90;;;9.10;99.90;;;;;;5045420;28;20029;-53
2023/12/17 06:52:19;;;;;;;16.05;10.00;;;9.10;99.90;;;;;;5044479;28;20022;-52
2023/12/17 06:54:44;;;;;;;15.48;10.65;;;9.10;99.90;;;;;;5045700;28;20474;-52
2023/12/17 06:57:10;;;;;;;15.20;10.13;;;9.10;99.90;;;;;;5026386;28;20435;-52
2023/12/17 06:59:35;;;;;;;14.60;10.95;;;9.10;99.90;;;;;;5042480;28;20021;-50
2023/12/17 07:02:01;;;;;;;16.17;9.95;;;9.10;99.90;;;;;;5030530;28;20052;-53
2023/12/17 07:04:27;;;;;;;18.55;11.18;;;9.10;99.90;;;;;;5041686;28;20117;-53
2023/12/17 07:06:52;;;;;;;14.02;10.48;;;9.10;99.90;;;;;;5027196;28;20119;-51
2023/12/17 07:09:18;;;;;;;16.08;10.65;;;9.10;99.90;;;;;;5042374;28;20106;-51
2023/12/17 07:11:43;;;;;;;17.63;10.80;;;9.10;99.90;;;;;;5028722;28;20029;-52
2023/12/17 07:14:09;;;;;;;13.95;10.32;;;9.10;99.90;;;;;;5039069;28;20029;-49
2023/12/17 07:16:35;;;;;;;16.48;11.32;;;9.20;99.90;;;;;;5029893;28;20531;-50
2023/12/17 07:19:00;;;;;;;15.38;11.20;;;9.10;99.90;;;;;;5029621;28;20037;-51
2023/12/17 07:21:26;;;;;;;13.25;9.68;;;9.20;99.90;;;;;;5022666;28;20120;-49
2023/12/17 07:23:52;;;;;;;15.38;10.85;;;9.10;99.90;;;;;;5048511;28;20655;-52
2023/12/17 07:26:17;;;;;;;14.88;10.90;;;9.10;99.90;;;;;;5038104;28;20040;-52
2023/12/17 07:28:43;;;;;;;17.98;11.73;;;9.10;99.90;;;;;;5044616;28;20095;-52
2023/12/17 07:31:08;;;;;;;17.95;12.32;;;9.20;99.90;;;;;;5041865;28;20022;-52
2023/12/17 07:33:34;;;;;;;20.75;11.45;;;9.20;99.90;;;;;;5030812;28;20022;-50
2023/12/17 07:36:00;;;;;;;17.02;11.88;;;9.10;99.90;;;;;;5045839;28;20532;-50
2023/12/17 07:38:25;;;;;;;15.63;11.27;;;9.10;99.90;;;;;;5049192;28;20021;-52
2023/12/17 07:40:51;;;;;;;13.70;11.15;;;9.10;99.90;;;;;;5049587;28;20104;-51
2023/12/17 07:43:16;;;;;;;18.45;12.50;;;9.10;99.90;;;;;;5039816;28;20025;-50
2023/12/17 07:45:42;;;;;;;17.50;12.02;;;9.10;99.90;;;;;;5029548;28;20108;-51
2023/12/17 07:48:08;;;;;;;16.33;11.38;;;9.20;99.90;;;;;;5030889;28;20021;-50
2023/12/17 07:50:34;;;;;;;16.08;11.90;;;9.20;99.90;;;;;;5032324;28;20048;-51
2023/12/17 07:53:00;;;;;;;18.55;11.65;;;9.10;99.90;;;;;;5029996;28;20397;-51
2023/12/17 07:55:26;;;;;;;16.38;11.63;;;9.20;99.90;;;;;;5021741;28;20025;-51
2023/12/17 07:57:51;;;;;;;19.02;13.05;;;9.20;99.90;;;;;;5037486;28;20039;-52
2023/12/17 08:00:17;;;;;;;15.23;11.15;;;9.20;99.90;;;;;;5049490;28;20079;-53
2023/12/17 08:02:43;;;;;;;19.20;12.95;;;9.20;99.90;;;;;;5032138;28;20032;-52
2023/12/17 08:05:09;;;;;;;16.45;11.55;;;9.20;99.90;;;;;;5048695;28;20370;-53
2023/12/17 08:07:36;;;;;;;16.67;12.25;;;9.20;99.90;;;;;;5049667;28;20096;-52
2023/12/17 08:10:03;;;;;;;17.27;12.20;;;9.20;99.90;;;;;;5048801;28;20100;-50
2023/12/17 08:12:29;;;;;;;17.30;11.85;;;9.20;99.90;;;;;;5042016;28;20028;-51
2023/12/17 08:14:55;;;;;;;16.67;11.68;;;9.30;99.90;;;;;;5040991;28;20025;-51
2023/12/17 08:17:20;;;;;;;15.93;11.48;;;9.30;99.90;;;;;;5014643;28;20032;-51
2023/12/17 08:19:46;;;;;;;21.67;13.20;;;9.30;99.90;;;;;;5029393;28;20025;-53
2023/12/17 08:22:11;;;;;;;17.92;11.57;;;9.20;99.90;;;;;;5046689;28;20465;-50
2023/12/17 08:24:37;;;;;;;17.85;11.57;;;9.30;99.90;;;;;;5048849;28;20098;-51
2023/12/17 08:27:03;;;;;;;19.52;12.27;;;9.20;99.90;;;;;;5048649;28;20025;-49
2023/12/17 08:29:29;;;;;;;19.02;12.55;;;9.30;99.90;;;;;;5031892;28;20462;-49
2023/12/17 08:31:58;;;;;;;18.20;12.70;;;9.30;99.90;;;;;;5040330;28;20155;-49
2023/12/17 08:34:29;;;;;;;22.02;13.43;;;9.30;99.90;;;;;;5044418;28;20044;-52
2023/12/17 08:36:56;;;;;;;22.25;12.80;;;9.30;99.90;;;;;;5027916;28;20418;-50
2023/12/17 08:39:23;;;;;;;22.15;13.60;;;9.30;99.90;;;;;;5027375;28;20495;-53
2023/12/17 08:41:52;;;;;;;18.67;12.57;;;9.40;99.90;;;;;;5009695;28;20455;-50
2023/12/17 08:44:20;;;;;;;17.88;13.13;;;9.40;99.90;;;;;;5028349;28;20052;-51
2023/12/17 08:46:46;;;;;;;19.00;12.55;;;9.40;99.90;;;;;;5028810;28;20346;-50
2023/12/17 08:49:12;;;;;;;19.75;13.27;;;9.30;99.90;;;;;;5027875;28;20257;-53
2023/12/17 08:51:38;;;;;;;18.73;12.95;;;9.40;99.90;;;;;;5012054;28;20411;-51
2023/12/17 08:54:04;;;;;;;18.15;13.07;;;9.40;99.90;;;;;;5029290;28;20013;-52
2023/12/17 08:56:29;;;;;;;20.92;12.93;;;9.40;99.90;;;;;;5028402;28;20418;-52
2023/12/17 08:58:55;;;;;;;19.38;13.15;;;9.40;99.90;;;;;;5015522;28;20109;-50
2023/12/17 09:01:21;;;;;;;19.75;13.82;;;9.40;99.90;;;;;;5028503;28;20395;-50
2023/12/17 09:03:46;;;;;;;21.13;13.00;;;9.40;99.90;;;;;;5029627;28;20036;-50
2023/12/17 09:06:12;;;;;;;22.00;14.15;;;9.40;99.90;;;;;;5031037;28;20018;-52
2023/12/17 09:08:37;;;;;;;19.55;13.20;;;9.40;99.90;;;;;;5031786;28;20134;-51
2023/12/17 09:11:03;;;;;;;19.33;13.27;;;9.40;99.90;;;;;;5029767;28;20105;-52
2023/12/17 09:13:29;;;;;;;21.02;14.43;;;9.40;99.90;;;;;;5031154;28;20277;-50
2023/12/17 09:15:54;;;;;;;18.45;12.95;;;9.40;99.90;;;;;;5027904;28;20040;-49
2023/12/17 09:18:20;;;;;;;18.25;12.77;;;9.50;99.90;;;;;;5029322;28;20349;-49
2023/12/17 09:20:45;;;;;;;20.85;13.15;;;9.50;99.90;;;;;;5029373;28;20029;-49
2023/12/17 09:23:11;;;;;;;18.60;12.55;;;9.40;99.90;;;;;;5028981;28;20060;-49
2023/12/17 09:25:37;;;;;;;17.13;12.57;;;9.50;99.90;;;;;;5011575;28;20087;-52
2023/12/17 09:28:03;;;;;;;19.95;13.63;;;9.50;99.90;;;;;;5029577;28;20386;-52
2023/12/17 09:30:29;;;;;;;18.90;13.13;;;9.50;99.90;;;;;;5011011;28;20100;-50
2023/12/17 09:32:55;;;;;;;18.75;12.90;;;9.50;99.90;;;;;;5029051;28;20106;-50
2023/12/17 09:35:20;;;;;;;17.75;12.73;;;9.50;99.90;;;;;;5028437;28;20479;-52
2023/12/17 09:37:47;;;;;;;19.63;12.90;;;9.60;99.90;;;;;;5029004;28;20047;-51
2023/12/17 09:40:13;;;;;;;23.80;15.07;;;9.60;99.90;;;;;;5029560;28;20018;-52
2023/12/17 09:42:42;;;;;;;20.30;12.73;;;9.60;99.90;;;;;;5029356;28;20017;-53
2023/12/17 09:45:09;;;;;;;18.25;12.15;;;9.60;99.90;;;;;;5028151;28;20048;-50
2023/12/17 09:47:35;;;;;;;20.65;13.35;;;9.70;99.90;;;;;;5029028;28;20049;-50
2023/12/17 09:50:01;;;;;;;17.83;12.32;;;9.60;99.90;;;;;;5029546;28;20487;-49
2023/12/17 09:52:29;;;;;;;18.58;12.70;;;9.70;99.90;;;;;;5030099;28;20056;-52
2023/12/17 09:54:55;;;;;;;20.33;13.27;;;9.70;99.90;;;;;;5029320;28;20083;-50
2023/12/17 09:57:21;;;;;;;18.38;12.90;;;9.70;99.90;;;;;;5030073;28;20026;-51
2023/12/17 09:59:47;;;;;;;17.75;11.90;;;9.80;99.90;;;;;;5028701;28;20024;-51
2023/12/17 10:02:15;;;;;;;18.00;11.27;;;9.80;99.90;;;;;;5030645;28;20096;-53
2023/12/17 10:04:41;;;;;;;17.52;12.07;;;9.80;99.90;;;;;;5014414;28;20367;-52
2023/12/17 10:07:07;;;;;;;16.00;11.63;;;9.80;99.90;;;;;;5029351;28;20087;-53
2023/12/17 10:09:35;;;;;;;19.80;11.88;;;9.80;99.90;;;;;;5030661;28;20025;-51
2023/12/17 10:12:01;;;;;;;16.38;11.52;;;9.90;99.90;;;;;;5030606;28;20018;-53
2023/12/17 10:14:30;;;;;;;17.20;12.10;;;9.80;99.90;;;;;;5030654;28;20156;-52
2023/12/17 10:16:57;;;;;;;16.00;11.45;;;9.80;99.90;;;;;;5026937;28;20037;-52
2023/12/17 10:19:24;;;;;;;16.83;11.18;;;9.80;99.90;;;;;;5030027;28;20029;-53
2023/12/17 10:21:49;;;;;;;20.65;13.23;;;9.90;99.90;;;;;;5028062;28;20032;-51
2023/12/17 10:24:15;;;;;;;16.58;12.13;;;9.90;99.90;;;;;;5030421;28;20334;-53
2023/12/17 10:26:45;;;;;;;15.10;10.43;;;10.00;99.90;;;;;;5027891;28;20090;-53
2023/12/17 10:29:18;;;;;;;16.02;10.45;;;10.20;99.90;;;;;;5030835;28;20033;-53
2023/12/17 10:31:45;;;;;;;24.10;11.57;;;10.30;99.90;;;;;;5028235;28;20037;-50
2023/12/17 10:34:20;;;;;;;13.60;9.88;;;10.40;99.90;;;;;;5013793;28;20049;-50
2023/12/17 10:36:50;;;;;;;14.27;10.48;;;10.50;99.90;;;;;;5033772;28;20079;-52
2023/12/17 10:39:17;;;;;;;15.75;9.70;;;10.60;99.90;;;;;;5035492;28;20105;-51
2023/12/17 10:41:44;;;;;;;11.85;8.48;;;10.80;99.90;;;;;;5033791;28;20025;-51
2023/12/17 10:44:14;;;;;;;15.95;10.23;;;11.00;99.90;;;;;;5034550;28;20387;-53
2023/12/17 10:46:44;;;;;;;12.82;8.45;;;11.10;99.90;;;;;;5033922;28;20025;-49
2023/12/17 10:49:13;;;;;;;15.48;9.00;;;11.10;99.90;;;;;;5035282;28;20168;-49
2023/12/17 10:51:41;;;;;;;12.90;9.63;;;11.10;99.90;;;;;;5034032;28;20505;-51
2023/12/17 10:54:07;;;;;;;12.23;9.23;;;11.10;99.90;;;;;;5032909;28;20077;-51
2023/12/17 10:56:37;;;;;;;13.70;9.50;;;11.20;99.90;;;;;;5034640;28;20036;-51
2023/12/17 10:59:08;;;;;;;9.27;7.45;;;11.80;99.90;;;;;;5033359;28;20021;-50
2023/12/17 11:01:36;;;;;;;9.68;7.82;;;12.60;99.90;;;;;;5033774;28;20677;-53
2023/12/17 11:04:04;;;;;;;10.13;6.80;;;13.00;99.90;;;;;;5034273;28;20023;-53
2023/12/17 11:06:30;;;;;;;8.68;6.55;;;12.80;99.90;;;;;;5029490;28;20037;-53
2023/12/17 11:08:56;;;;;;;9.65;7.07;;;12.80;99.90;;;;;;5035983;28;20025;-50
2023/12/17 11:11:22;;;;;;;9.00;6.65;;;12.80;99.90;;;;;;5011111;28;20018;-53
2023/12/17 11:13:48;;;;;;;9.18;6.65;;;12.80;99.90;;;;;;5029743;28;20459;-52
2023/12/17 11:16:24;;;;;;;9.45;6.45;;;12.70;99.90;;;;;;5016501;28;20025;-52
2023/12/17 11:18:52;;;;;;;7.60;5.53;;;12.50;99.90;;;;;;5030142;28;20049;-50
2023/12/17 11:21:19;;;;;;;7.05;5.38;;;12.40;99.90;;;;;;5029641;28;20025;-53
2023/12/17 11:23:54;;;;;;;6.05;5.35;;;12.30;99.90;;;;;;5029950;28;20386;-52
2023/12/17 11:26:19;;;;;;;6.80;4.93;;;12.30;99.90;;;;;;5029404;28;20032;-53
2023/12/17 11:28:45;;;;;;;5.65;4.65;;;12.20;99.90;;;;;;5024090;28;20108;-53
2023/12/17 11:31:15;;;;;;;6.25;5.03;;;12.20;99.90;;;;;;5030409;28;20486;-53
2023/12/17 11:33:41;;;;;;;6.28;4.97;;;12.10;99.90;;;;;;5029972;28;20092;-53
2023/12/17 11:36:08;;;;;;;5.72;4.75;;;11.90;99.90;;;;;;5023171;28;20034;-53
2023/12/17 11:38:35;;;;;;;5.45;4.43;;;11.70;99.90;;;;;;5021306;28;20017;-53
2023/12/17 11:41:03;;;;;;;4.70;3.90;;;11.60;99.90;;;;;;5007722;28;20025;-53
2023/12/17 11:43:29;;;;;;;6.47;4.90;;;11.60;99.90;;;;;;5028805;28;20026;-53
2023/12/17 11:45:55;;;;;;;5.93;4.43;;;11.70;99.90;;;;;;5028406;28;20082;-51
2023/12/17 11:48:21;;;;;;;5.03;3.92;;;11.70;99.90;;;;;;5029838;28;20051;-50
2023/12/17 11:50:56;;;;;;;5.35;4.05;;;11.60;99.90;;;;;;5028417;28;20024;-53
2023/12/17 11:53:26;;;;;;;4.38;3.35;;;11.50;99.90;;;;;;5024047;28;20029;-52
2023/12/17 11:55:52;;;;;;;7.43;3.47;;;11.40;99.90;;;;;;5011764;28;20501;-51
2023/12/17 11:58:19;;;;;;;15.15;6.40;;;11.30;99.90;;;;;;5023540;28;20380;-50
2023/12/17 12:01:04;;;;;;;5.55;3.97;;;11.30;99.90;;;;;;5020365;28;20390;-53
2023/12/17 12:03:30;;;;;;;6.97;4.00;;;11.20;99.90;;;;;;5022107;28;20021;-53
2023/12/17 12:06:03;;;;;;;5.32;4.15;;;11.10;99.90;;;;;;5022624;28;20483;-53
2023/12/17 12:08:34;;;;;;;5.30;4.05;;;11.10;99.90;;;;;;5021698;28;20028;-52
2023/12/17 12:11:02;;;;;;;4.10;3.45;;;11.10;99.90;;;;;;5022515;28;20021;-53
2023/12/17 12:13:28;;;;;;;4.40;3.50;;;11.00;99.90;;;;;;5029043;28;20033;-53
2023/12/17 12:15:57;;;;;;;3.58;2.75;;;11.00;99.90;;;;;;5033601;28;20036;-53
2023/12/17 12:18:23;;;;;;;4.30;3.63;;;11.00;99.90;;;;;;5031550;28;20095;-53
2023/12/17 12:20:50;;;;;;;4.50;3.30;;;10.90;99.90;;;;;;5027097;28;20026;-51
2023/12/17 12:23:16;;;;;;;6.07;3.55;;;10.90;99.90;;;;;;5027995;28;20083;-52
2023/12/17 12:25:42;;;;;;;3.63;2.97;;;10.90;99.90;;;;;;5028227;28;20181;-52
2023/12/17 12:28:19;;;;;;;3.85;3.15;;;10.90;99.90;;;;;;5030960;28;20021;-50
2023/12/17 12:30:45;;;;;;;4.05;3.10;;;10.80;99.90;;;;;;5033076;28;20025;-53
2023/12/17 12:33:12;;;;;;;3.78;3.22;;;10.70;99.90;;;;;;5033900;28;20021;-53